sensor_id;sensor_type;location;lat;lon;timestamp;P1;durP1;ratioP1;P2;durP2;ratioP2
56045;SDS011;41913;51.030;3.706;2023-11-19T00:02:10;3.50;;;0.80;;
56045;SDS011;41913;51.030;3.706;2023-11-19T00:04:39;2.08;;;0.85;;
56045;SDS011;41913;51.030;3.706;2023-11-19T00:07:05;1.13;;;0.93;;
56045;SDS011;41913;51.030;3.706;2023-11-19T00:09:33;0.70;;;0.70;;
56045;SDS011;41913;51.030;3.706;2023-11-19T00:12:02;1.67;;;0.80;;
56045;SDS011;41913;51.030;3.706;2023-11-19T00:14:29;1.90;;;0.70;;
56045;SDS011;41913;51.030;3.706;2023-11-19T00:16:56;2.45;;;0.90;;
56045;SDS011;41913;51.030;3.706;2023-11-19T00:19:23;1.30;;;0.95;;
56045;SDS011;41913;51.030;3.706;2023-11-19T00:21:49;2.50;;;1.10;;
56045;SDS011;41913;51.030;3.706;2023-11-19T00:24:14;3.83;;;1.35;;
56045;SDS011;41913;51.030;3.706;2023-11-19T00:26:44;2.40;;;1.20;;
56045;SDS011;41913;51.030;3.706;2023-11-19T00:29:11;1.17;;;1.05;;
56045;SDS011;41913;51.030;3.706;2023-11-19T00:31:39;0.77;;;0.77;;
56045;SDS011;41913;51.030;3.706;2023-11-19T00:34:05;2.55;;;1.00;;
56045;SDS011;41913;51.030;3.706;2023-11-19T00:36:31;3.47;;;0.80;;
56045;SDS011;41913;51.030;3.706;2023-11-19T00:38:57;1.20;;;0.70;;
56045;SDS011;41913;51.030;3.706;2023-11-19T00:41:24;1.15;;;0.85;;
56045;SDS011;41913;51.030;3.706;2023-11-19T00:43:51;2.03;;;1.05;;
56045;SDS011;41913;51.030;3.706;2023-11-19T00:46:17;2.40;;;1.00;;
56045;SDS011;41913;51.030;3.706;2023-11-19T00:48:43;2.15;;;0.90;;
56045;SDS011;41913;51.030;3.706;2023-11-19T00:51:11;2.72;;;1.17;;
56045;SDS011;41913;51.030;3.706;2023-11-19T00:53:37;4.13;;;1.13;;
56045;SDS011;41913;51.030;3.706;2023-11-19T00:56:02;3.33;;;1.20;;
56045;SDS011;41913;51.030;3.706;2023-11-19T00:58:28;2.63;;;1.17;;
56045;SDS011;41913;51.030;3.706;2023-11-19T01:00:55;3.30;;;1.23;;
56045;SDS011;41913;51.030;3.706;2023-11-19T01:03:23;2.50;;;1.00;;
56045;SDS011;41913;51.030;3.706;2023-11-19T01:05:50;2.13;;;1.02;;
56045;SDS011;41913;51.030;3.706;2023-11-19T01:08:18;2.03;;;1.20;;
56045;SDS011;41913;51.030;3.706;2023-11-19T01:10:44;4.55;;;1.05;;
56045;SDS011;41913;51.030;3.706;2023-11-19T01:13:10;2.03;;;1.10;;
56045;SDS011;41913;51.030;3.706;2023-11-19T01:15:35;2.35;;;1.05;;
56045;SDS011;41913;51.030;3.706;2023-11-19T01:18:01;5.43;;;1.20;;
56045;SDS011;41913;51.030;3.706;2023-11-19T01:20:30;3.55;;;1.00;;
56045;SDS011;41913;51.030;3.706;2023-11-19T01:22:56;2.95;;;1.33;;
56045;SDS011;41913;51.030;3.706;2023-11-19T01:25:22;4.28;;;1.40;;
56045;SDS011;41913;51.030;3.706;2023-11-19T01:27:49;2.88;;;1.45;;
56045;SDS011;41913;51.030;3.706;2023-11-19T01:30:15;5.18;;;1.70;;
56045;SDS011;41913;51.030;3.706;2023-11-19T01:32:41;2.35;;;1.05;;
56045;SDS011;41913;51.030;3.706;2023-11-19T01:35:06;4.68;;;1.13;;
56045;SDS011;41913;51.030;3.706;2023-11-19T01:37:39;2.22;;;1.20;;
56045;SDS011;41913;51.030;3.706;2023-11-19T01:40:04;4.63;;;1.42;;
56045;SDS011;41913;51.030;3.706;2023-11-19T01:42:39;3.65;;;1.17;;
56045;SDS011;41913;51.030;3.706;2023-11-19T01:45:06;5.00;;;1.38;;
56045;SDS011;41913;51.030;3.706;2023-11-19T01:47:35;1.83;;;1.20;;
56045;SDS011;41913;51.030;3.706;2023-11-19T01:50:01;3.38;;;1.30;;
56045;SDS011;41913;51.030;3.706;2023-11-19T01:52:33;4.55;;;1.63;;
56045;SDS011;41913;51.030;3.706;2023-11-19T01:55:03;2.85;;;1.58;;
56045;SDS011;41913;51.030;3.706;2023-11-19T01:57:31;8.02;;;1.10;;
56045;SDS011;41913;51.030;3.706;2023-11-19T01:59:56;4.78;;;1.40;;
56045;SDS011;41913;51.030;3.706;2023-11-19T02:02:23;3.00;;;1.65;;
56045;SDS011;41913;51.030;3.706;2023-11-19T02:04:51;3.22;;;1.17;;
56045;SDS011;41913;51.030;3.706;2023-11-19T02:07:18;5.82;;;1.30;;
56045;SDS011;41913;51.030;3.706;2023-11-19T02:09:45;7.70;;;1.70;;
56045;SDS011;41913;51.030;3.706;2023-11-19T02:12:10;3.63;;;1.75;;
56045;SDS011;41913;51.030;3.706;2023-11-19T02:14:41;2.70;;;1.08;;
56045;SDS011;41913;51.030;3.706;2023-11-19T02:17:07;4.75;;;1.35;;
56045;SDS011;41913;51.030;3.706;2023-11-19T02:19:49;7.68;;;1.65;;
56045;SDS011;41913;51.030;3.706;2023-11-19T02:22:17;8.27;;;1.80;;
56045;SDS011;41913;51.030;3.706;2023-11-19T02:24:43;4.40;;;1.52;;
56045;SDS011;41913;51.030;3.706;2023-11-19T02:27:14;4.07;;;1.33;;
56045;SDS011;41913;51.030;3.706;2023-11-19T02:30:10;1.75;;;1.08;;
56045;SDS011;41913;51.030;3.706;2023-11-19T02:32:42;8.13;;;2.15;;
56045;SDS011;41913;51.030;3.706;2023-11-19T02:35:07;4.30;;;1.95;;
56045;SDS011;41913;51.030;3.706;2023-11-19T02:37:38;2.05;;;1.42;;
56045;SDS011;41913;51.030;3.706;2023-11-19T02:40:04;3.63;;;1.65;;
56045;SDS011;41913;51.030;3.706;2023-11-19T02:42:34;8.23;;;1.10;;
56045;SDS011;41913;51.030;3.706;2023-11-19T02:45:00;5.07;;;1.55;;
56045;SDS011;41913;51.030;3.706;2023-11-19T02:47:27;7.00;;;1.83;;
56045;SDS011;41913;51.030;3.706;2023-11-19T02:49:55;8.20;;;1.45;;
56045;SDS011;41913;51.030;3.706;2023-11-19T02:52:21;4.05;;;1.95;;
56045;SDS011;41913;51.030;3.706;2023-11-19T02:54:47;5.47;;;1.60;;
56045;SDS011;41913;51.030;3.706;2023-11-19T02:57:13;2.50;;;1.50;;
56045;SDS011;41913;51.030;3.706;2023-11-19T02:59:39;2.47;;;1.70;;
56045;SDS011;41913;51.030;3.706;2023-11-19T03:02:08;3.85;;;1.77;;
56045;SDS011;41913;51.030;3.706;2023-11-19T03:04:37;4.72;;;1.65;;
56045;SDS011;41913;51.030;3.706;2023-11-19T03:07:06;3.80;;;1.65;;
56045;SDS011;41913;51.030;3.706;2023-11-19T03:09:32;2.45;;;1.75;;
56045;SDS011;41913;51.030;3.706;2023-11-19T03:12:00;5.85;;;1.58;;
56045;SDS011;41913;51.030;3.706;2023-11-19T03:14:27;5.72;;;1.55;;
56045;SDS011;41913;51.030;3.706;2023-11-19T03:16:53;5.07;;;1.55;;
56045;SDS011;41913;51.030;3.706;2023-11-19T03:19:19;2.90;;;1.25;;
56045;SDS011;41913;51.030;3.706;2023-11-19T03:21:44;3.58;;;1.77;;
56045;SDS011;41913;51.030;3.706;2023-11-19T03:24:14;6.15;;;2.17;;
56045;SDS011;41913;51.030;3.706;2023-11-19T03:26:40;5.35;;;1.58;;
56045;SDS011;41913;51.030;3.706;2023-11-19T03:29:07;5.43;;;1.70;;
56045;SDS011;41913;51.030;3.706;2023-11-19T03:31:33;3.53;;;1.63;;
56045;SDS011;41913;51.030;3.706;2023-11-19T03:33:59;4.60;;;1.98;;
56045;SDS011;41913;51.030;3.706;2023-11-19T03:36:25;5.00;;;2.03;;
56045;SDS011;41913;51.030;3.706;2023-11-19T03:38:57;6.72;;;2.00;;
56045;SDS011;41913;51.030;3.706;2023-11-19T03:41:23;4.07;;;1.52;;
56045;SDS011;41913;51.030;3.706;2023-11-19T03:43:49;4.40;;;1.75;;
56045;SDS011;41913;51.030;3.706;2023-11-19T03:46:21;4.35;;;1.80;;
56045;SDS011;41913;51.030;3.706;2023-11-19T03:48:50;4.70;;;1.92;;
56045;SDS011;41913;51.030;3.706;2023-11-19T03:51:16;2.97;;;1.60;;
56045;SDS011;41913;51.030;3.706;2023-11-19T03:53:43;4.40;;;1.77;;
56045;SDS011;41913;51.030;3.706;2023-11-19T03:56:12;5.18;;;2.17;;
56045;SDS011;41913;51.030;3.706;2023-11-19T03:58:38;10.88;;;2.60;;
56045;SDS011;41913;51.030;3.706;2023-11-19T04:01:05;9.82;;;1.90;;
56045;SDS011;41913;51.030;3.706;2023-11-19T04:03:31;5.40;;;2.08;;
56045;SDS011;41913;51.030;3.706;2023-11-19T04:05:59;6.13;;;2.10;;
56045;SDS011;41913;51.030;3.706;2023-11-19T04:08:24;6.38;;;2.10;;
56045;SDS011;41913;51.030;3.706;2023-11-19T04:10:51;4.70;;;1.55;;
56045;SDS011;41913;51.030;3.706;2023-11-19T04:13:17;6.03;;;2.20;;
56045;SDS011;41913;51.030;3.706;2023-11-19T04:15:43;4.38;;;2.08;;
56045;SDS011;41913;51.030;3.706;2023-11-19T04:18:09;10.32;;;2.80;;
56045;SDS011;41913;51.030;3.706;2023-11-19T04:20:35;5.43;;;2.10;;
56045;SDS011;41913;51.030;3.706;2023-11-19T04:23:01;4.20;;;1.80;;
56045;SDS011;41913;51.030;3.706;2023-11-19T04:25:27;6.40;;;2.35;;
56045;SDS011;41913;51.030;3.706;2023-11-19T04:27:54;5.07;;;1.85;;
56045;SDS011;41913;51.030;3.706;2023-11-19T04:30:20;5.15;;;1.80;;
56045;SDS011;41913;51.030;3.706;2023-11-19T04:32:46;5.97;;;2.22;;
56045;SDS011;41913;51.030;3.706;2023-11-19T04:35:13;3.97;;;2.03;;
56045;SDS011;41913;51.030;3.706;2023-11-19T04:40:09;5.97;;;2.53;;
56045;SDS011;41913;51.030;3.706;2023-11-19T04:42:37;8.90;;;2.78;;
56045;SDS011;41913;51.030;3.706;2023-11-19T04:45:05;6.15;;;2.35;;
56045;SDS011;41913;51.030;3.706;2023-11-19T04:47:32;6.78;;;2.25;;
56045;SDS011;41913;51.030;3.706;2023-11-19T04:49:59;9.30;;;2.47;;
56045;SDS011;41913;51.030;3.706;2023-11-19T04:52:25;5.95;;;1.70;;
56045;SDS011;41913;51.030;3.706;2023-11-19T04:54:52;2.83;;;1.60;;
56045;SDS011;41913;51.030;3.706;2023-11-19T04:57:17;7.72;;;2.00;;
56045;SDS011;41913;51.030;3.706;2023-11-19T04:59:43;8.23;;;1.77;;
56045;SDS011;41913;51.030;3.706;2023-11-19T05:02:10;5.35;;;2.22;;
56045;SDS011;41913;51.030;3.706;2023-11-19T05:04:36;4.35;;;2.22;;
56045;SDS011;41913;51.030;3.706;2023-11-19T05:07:02;4.18;;;1.50;;
56045;SDS011;41913;51.030;3.706;2023-11-19T05:09:28;7.00;;;2.38;;
56045;SDS011;41913;51.030;3.706;2023-11-19T05:11:55;9.20;;;3.10;;
56045;SDS011;41913;51.030;3.706;2023-11-19T05:14:22;4.50;;;2.42;;
56045;SDS011;41913;51.030;3.706;2023-11-19T05:16:49;3.72;;;1.65;;
56045;SDS011;41913;51.030;3.706;2023-11-19T05:19:15;6.03;;;2.42;;
56045;SDS011;41913;51.030;3.706;2023-11-19T05:21:50;5.82;;;1.95;;
56045;SDS011;41913;51.030;3.706;2023-11-19T05:24:17;3.63;;;1.63;;
56045;SDS011;41913;51.030;3.706;2023-11-19T05:26:43;7.82;;;2.70;;
56045;SDS011;41913;51.030;3.706;2023-11-19T05:29:11;4.95;;;1.88;;
56045;SDS011;41913;51.030;3.706;2023-11-19T05:31:36;10.52;;;2.83;;
56045;SDS011;41913;51.030;3.706;2023-11-19T05:34:02;4.38;;;1.73;;
56045;SDS011;41913;51.030;3.706;2023-11-19T05:36:28;7.47;;;2.20;;
56045;SDS011;41913;51.030;3.706;2023-11-19T05:38:54;8.48;;;2.13;;
56045;SDS011;41913;51.030;3.706;2023-11-19T05:41:20;8.13;;;2.75;;
56045;SDS011;41913;51.030;3.706;2023-11-19T05:43:46;1.85;;;1.50;;
56045;SDS011;41913;51.030;3.706;2023-11-19T05:46:12;6.38;;;2.03;;
56045;SDS011;41913;51.030;3.706;2023-11-19T05:48:38;5.45;;;2.30;;
56045;SDS011;41913;51.030;3.706;2023-11-19T05:51:04;5.63;;;2.22;;
56045;SDS011;41913;51.030;3.706;2023-11-19T05:53:30;4.53;;;1.70;;
56045;SDS011;41913;51.030;3.706;2023-11-19T05:55:57;4.88;;;2.40;;
56045;SDS011;41913;51.030;3.706;2023-11-19T05:58:23;4.18;;;1.95;;
56045;SDS011;41913;51.030;3.706;2023-11-19T06:00:57;6.55;;;2.00;;
56045;SDS011;41913;51.030;3.706;2023-11-19T06:03:22;4.30;;;1.60;;
56045;SDS011;41913;51.030;3.706;2023-11-19T06:05:49;5.80;;;2.38;;
56045;SDS011;41913;51.030;3.706;2023-11-19T06:08:16;6.63;;;2.50;;
56045;SDS011;41913;51.030;3.706;2023-11-19T06:10:42;7.43;;;2.30;;
56045;SDS011;41913;51.030;3.706;2023-11-19T06:13:11;5.15;;;1.90;;
56045;SDS011;41913;51.030;3.706;2023-11-19T06:15:37;2.50;;;1.83;;
56045;SDS011;41913;51.030;3.706;2023-11-19T06:18:03;4.03;;;1.50;;
56045;SDS011;41913;51.030;3.706;2023-11-19T06:20:29;9.27;;;2.28;;
56045;SDS011;41913;51.030;3.706;2023-11-19T06:22:56;7.40;;;2.20;;
56045;SDS011;41913;51.030;3.706;2023-11-19T06:25:23;6.53;;;2.22;;
56045;SDS011;41913;51.030;3.706;2023-11-19T06:27:50;7.72;;;2.92;;
56045;SDS011;41913;51.030;3.706;2023-11-19T06:30:16;7.78;;;2.78;;
56045;SDS011;41913;51.030;3.706;2023-11-19T06:32:42;8.45;;;2.17;;
56045;SDS011;41913;51.030;3.706;2023-11-19T06:35:08;8.23;;;2.33;;
56045;SDS011;41913;51.030;3.706;2023-11-19T06:37:35;7.22;;;1.90;;
56045;SDS011;41913;51.030;3.706;2023-11-19T06:40:01;3.85;;;1.90;;
56045;SDS011;41913;51.030;3.706;2023-11-19T06:42:30;6.65;;;2.60;;
56045;SDS011;41913;51.030;3.706;2023-11-19T06:44:56;8.18;;;2.33;;
56045;SDS011;41913;51.030;3.706;2023-11-19T06:47:26;9.38;;;2.45;;
56045;SDS011;41913;51.030;3.706;2023-11-19T06:49:53;5.03;;;2.05;;
56045;SDS011;41913;51.030;3.706;2023-11-19T06:52:19;8.45;;;2.63;;
56045;SDS011;41913;51.030;3.706;2023-11-19T06:54:47;7.75;;;2.20;;
56045;SDS011;41913;51.030;3.706;2023-11-19T06:57:14;6.93;;;2.03;;
56045;SDS011;41913;51.030;3.706;2023-11-19T06:59:41;6.47;;;2.65;;
56045;SDS011;41913;51.030;3.706;2023-11-19T07:02:08;5.93;;;2.22;;
56045;SDS011;41913;51.030;3.706;2023-11-19T07:04:36;7.20;;;2.45;;
56045;SDS011;41913;51.030;3.706;2023-11-19T07:07:02;8.93;;;2.78;;
56045;SDS011;41913;51.030;3.706;2023-11-19T07:09:28;6.00;;;2.20;;
56045;SDS011;41913;51.030;3.706;2023-11-19T07:11:55;3.40;;;1.77;;
56045;SDS011;41913;51.030;3.706;2023-11-19T07:14:25;8.85;;;2.40;;
56045;SDS011;41913;51.030;3.706;2023-11-19T07:16:51;3.38;;;2.38;;
56045;SDS011;41913;51.030;3.706;2023-11-19T07:19:18;5.55;;;2.60;;
56045;SDS011;41913;51.030;3.706;2023-11-19T07:21:44;9.27;;;1.83;;
56045;SDS011;41913;51.030;3.706;2023-11-19T07:24:10;3.85;;;2.42;;
56045;SDS011;41913;51.030;3.706;2023-11-19T07:26:41;9.52;;;2.70;;
56045;SDS011;41913;51.030;3.706;2023-11-19T07:29:10;7.70;;;2.40;;
56045;SDS011;41913;51.030;3.706;2023-11-19T07:31:36;5.25;;;2.25;;
56045;SDS011;41913;51.030;3.706;2023-11-19T07:34:03;7.90;;;2.45;;
56045;SDS011;41913;51.030;3.706;2023-11-19T07:36:36;8.07;;;2.83;;
56045;SDS011;41913;51.030;3.706;2023-11-19T07:39:03;8.90;;;3.33;;
56045;SDS011;41913;51.030;3.706;2023-11-19T07:41:30;6.45;;;2.38;;
56045;SDS011;41913;51.030;3.706;2023-11-19T07:43:56;6.22;;;2.58;;
56045;SDS011;41913;51.030;3.706;2023-11-19T07:46:21;6.45;;;2.58;;
56045;SDS011;41913;51.030;3.706;2023-11-19T07:48:47;10.18;;;3.00;;
56045;SDS011;41913;51.030;3.706;2023-11-19T07:51:14;10.40;;;3.05;;
56045;SDS011;41913;51.030;3.706;2023-11-19T07:53:43;5.72;;;2.33;;
56045;SDS011;41913;51.030;3.706;2023-11-19T07:56:09;10.57;;;2.75;;
56045;SDS011;41913;51.030;3.706;2023-11-19T07:58:36;7.53;;;3.03;;
56045;SDS011;41913;51.030;3.706;2023-11-19T08:01:02;6.00;;;2.10;;
56045;SDS011;41913;51.030;3.706;2023-11-19T08:03:28;11.40;;;2.40;;
56045;SDS011;41913;51.030;3.706;2023-11-19T08:05:59;7.15;;;2.17;;
56045;SDS011;41913;51.030;3.706;2023-11-19T08:08:27;5.72;;;2.17;;
56045;SDS011;41913;51.030;3.706;2023-11-19T08:10:55;8.95;;;2.67;;
56045;SDS011;41913;51.030;3.706;2023-11-19T08:13:23;6.25;;;2.90;;
56045;SDS011;41913;51.030;3.706;2023-11-19T08:15:50;5.80;;;2.78;;
56045;SDS011;41913;51.030;3.706;2023-11-19T08:18:16;4.80;;;2.28;;
56045;SDS011;41913;51.030;3.706;2023-11-19T08:20:43;6.88;;;3.00;;
56045;SDS011;41913;51.030;3.706;2023-11-19T08:23:17;9.40;;;3.65;;
56045;SDS011;41913;51.030;3.706;2023-11-19T08:25:50;3.38;;;2.38;;
56045;SDS011;41913;51.030;3.706;2023-11-19T08:28:17;11.07;;;3.30;;
56045;SDS011;41913;51.030;3.706;2023-11-19T08:30:43;7.63;;;2.90;;
56045;SDS011;41913;51.030;3.706;2023-11-19T08:33:10;10.98;;;2.67;;
56045;SDS011;41913;51.030;3.706;2023-11-19T08:35:36;12.55;;;2.65;;
56045;SDS011;41913;51.030;3.706;2023-11-19T08:38:02;13.98;;;3.53;;
56045;SDS011;41913;51.030;3.706;2023-11-19T08:40:28;7.63;;;3.33;;
56045;SDS011;41913;51.030;3.706;2023-11-19T08:42:56;9.68;;;3.15;;
56045;SDS011;41913;51.030;3.706;2023-11-19T08:45:21;8.40;;;3.13;;
56045;SDS011;41913;51.030;3.706;2023-11-19T08:47:47;9.18;;;2.85;;
56045;SDS011;41913;51.030;3.706;2023-11-19T08:50:13;9.82;;;3.10;;
56045;SDS011;41913;51.030;3.706;2023-11-19T08:52:39;12.27;;;3.35;;
56045;SDS011;41913;51.030;3.706;2023-11-19T08:55:05;11.70;;;2.72;;
56045;SDS011;41913;51.030;3.706;2023-11-19T08:57:35;11.10;;;3.03;;
56045;SDS011;41913;51.030;3.706;2023-11-19T09:00:01;10.57;;;2.83;;
56045;SDS011;41913;51.030;3.706;2023-11-19T09:02:32;9.73;;;3.10;;
56045;SDS011;41913;51.030;3.706;2023-11-19T09:04:58;20.52;;;3.25;;
56045;SDS011;41913;51.030;3.706;2023-11-19T09:07:25;8.80;;;2.97;;
56045;SDS011;41913;51.030;3.706;2023-11-19T09:09:51;13.05;;;3.00;;
56045;SDS011;41913;51.030;3.706;2023-11-19T09:12:18;9.60;;;3.33;;
56045;SDS011;41913;51.030;3.706;2023-11-19T09:14:44;8.73;;;2.78;;
56045;SDS011;41913;51.030;3.706;2023-11-19T09:17:11;19.17;;;3.35;;
56045;SDS011;41913;51.030;3.706;2023-11-19T09:19:36;6.07;;;2.70;;
56045;SDS011;41913;51.030;3.706;2023-11-19T09:22:02;7.40;;;2.75;;
56045;SDS011;41913;51.030;3.706;2023-11-19T09:24:31;9.70;;;2.38;;
56045;SDS011;41913;51.030;3.706;2023-11-19T09:26:57;12.10;;;3.63;;
56045;SDS011;41913;51.030;3.706;2023-11-19T09:29:23;12.15;;;3.83;;
56045;SDS011;41913;51.030;3.706;2023-11-19T09:31:49;13.90;;;3.20;;
56045;SDS011;41913;51.030;3.706;2023-11-19T09:34:14;18.98;;;4.75;;
56045;SDS011;41913;51.030;3.706;2023-11-19T09:36:41;26.15;;;3.90;;
56045;SDS011;41913;51.030;3.706;2023-11-19T09:39:09;18.95;;;3.55;;
56045;SDS011;41913;51.030;3.706;2023-11-19T09:41:36;21.27;;;3.58;;
56045;SDS011;41913;51.030;3.706;2023-11-19T09:44:03;14.88;;;3.67;;
56045;SDS011;41913;51.030;3.706;2023-11-19T09:46:30;15.55;;;4.32;;
56045;SDS011;41913;51.030;3.706;2023-11-19T09:48:56;17.15;;;3.95;;
56045;SDS011;41913;51.030;3.706;2023-11-19T09:51:24;14.32;;;3.72;;
56045;SDS011;41913;51.030;3.706;2023-11-19T09:53:50;21.92;;;3.95;;
56045;SDS011;41913;51.030;3.706;2023-11-19T09:56:16;17.80;;;4.95;;
56045;SDS011;41913;51.030;3.706;2023-11-19T09:58:42;31.08;;;4.97;;
56045;SDS011;41913;51.030;3.706;2023-11-19T10:01:08;35.67;;;6.13;;
56045;SDS011;41913;51.030;3.706;2023-11-19T10:03:37;26.98;;;4.68;;
56045;SDS011;41913;51.030;3.706;2023-11-19T10:06:08;18.63;;;4.35;;
56045;SDS011;41913;51.030;3.706;2023-11-19T10:08:39;24.60;;;5.20;;
56045;SDS011;41913;51.030;3.706;2023-11-19T10:11:07;25.05;;;4.47;;
56045;SDS011;41913;51.030;3.706;2023-11-19T10:13:35;16.73;;;3.50;;
56045;SDS011;41913;51.030;3.706;2023-11-19T10:16:15;23.25;;;4.03;;
56045;SDS011;41913;51.030;3.706;2023-11-19T10:18:42;19.63;;;4.43;;
56045;SDS011;41913;51.030;3.706;2023-11-19T10:21:12;15.40;;;3.70;;
56045;SDS011;41913;51.030;3.706;2023-11-19T10:23:49;27.73;;;4.55;;
56045;SDS011;41913;51.030;3.706;2023-11-19T10:26:19;31.70;;;5.13;;
56045;SDS011;41913;51.030;3.706;2023-11-19T10:28:46;14.18;;;2.97;;
56045;SDS011;41913;51.030;3.706;2023-11-19T10:31:16;11.35;;;3.30;;
56045;SDS011;41913;51.030;3.706;2023-11-19T10:33:50;15.15;;;3.65;;
56045;SDS011;41913;51.030;3.706;2023-11-19T10:36:16;12.25;;;3.72;;
56045;SDS011;41913;51.030;3.706;2023-11-19T10:38:52;9.25;;;3.30;;
56045;SDS011;41913;51.030;3.706;2023-11-19T10:41:29;11.80;;;3.72;;
56045;SDS011;41913;51.030;3.706;2023-11-19T10:44:06;22.48;;;3.55;;
56045;SDS011;41913;51.030;3.706;2023-11-19T10:46:41;21.63;;;3.80;;
56045;SDS011;41913;51.030;3.706;2023-11-19T10:49:09;18.67;;;3.95;;
56045;SDS011;41913;51.030;3.706;2023-11-19T10:51:40;18.50;;;3.70;;
56045;SDS011;41913;51.030;3.706;2023-11-19T10:54:11;10.73;;;3.05;;
56045;SDS011;41913;51.030;3.706;2023-11-19T10:56:40;14.52;;;2.75;;
56045;SDS011;41913;51.030;3.706;2023-11-19T10:59:11;13.80;;;4.22;;
56045;SDS011;41913;51.030;3.706;2023-11-19T11:01:43;11.60;;;3.00;;
56045;SDS011;41913;51.030;3.706;2023-11-19T11:04:13;13.50;;;3.45;;
56045;SDS011;41913;51.030;3.706;2023-11-19T11:06:43;16.63;;;3.67;;
56045;SDS011;41913;51.030;3.706;2023-11-19T11:09:10;15.20;;;3.47;;
56045;SDS011;41913;51.030;3.706;2023-11-19T11:11:40;13.40;;;3.30;;
56045;SDS011;41913;51.030;3.706;2023-11-19T11:16:42;9.25;;;3.92;;
56045;SDS011;41913;51.030;3.706;2023-11-19T11:19:10;16.70;;;4.30;;
56045;SDS011;41913;51.030;3.706;2023-11-19T11:21:37;15.50;;;4.30;;
56045;SDS011;41913;51.030;3.706;2023-11-19T11:24:13;16.52;;;4.63;;
56045;SDS011;41913;51.030;3.706;2023-11-19T11:30:11;18.33;;;4.50;;
56045;SDS011;41913;51.030;3.706;2023-11-19T11:33:04;12.52;;;4.05;;
56045;SDS011;41913;51.030;3.706;2023-11-19T11:38:31;24.60;;;5.05;;
56045;SDS011;41913;51.030;3.706;2023-11-19T11:41:23;16.27;;;4.75;;
56045;SDS011;41913;51.030;3.706;2023-11-19T11:43:53;14.70;;;4.57;;
56045;SDS011;41913;51.030;3.706;2023-11-19T11:49:00;15.50;;;3.47;;
56045;SDS011;41913;51.030;3.706;2023-11-19T11:54:11;16.92;;;3.75;;
56045;SDS011;41913;51.030;3.706;2023-11-19T11:57:01;15.15;;;4.25;;
56045;SDS011;41913;51.030;3.706;2023-11-19T12:02:16;13.43;;;3.20;;
56045;SDS011;41913;51.030;3.706;2023-11-19T12:04:50;13.43;;;3.67;;
56045;SDS011;41913;51.030;3.706;2023-11-19T12:07:21;18.08;;;3.95;;
56045;SDS011;41913;51.030;3.706;2023-11-19T12:09:51;15.10;;;4.32;;
56045;SDS011;41913;51.030;3.706;2023-11-19T12:12:37;18.88;;;4.28;;
56045;SDS011;41913;51.030;3.706;2023-11-19T12:15:07;15.23;;;4.45;;
56045;SDS011;41913;51.030;3.706;2023-11-19T12:17:37;15.95;;;3.60;;
56045;SDS011;41913;51.030;3.706;2023-11-19T12:20:09;7.80;;;2.90;;
56045;SDS011;41913;51.030;3.706;2023-11-19T12:22:40;15.93;;;4.25;;
56045;SDS011;41913;51.030;3.706;2023-11-19T12:25:08;11.40;;;3.97;;
56045;SDS011;41913;51.030;3.706;2023-11-19T12:27:35;17.13;;;3.78;;
56045;SDS011;41913;51.030;3.706;2023-11-19T12:30:04;17.10;;;4.35;;
56045;SDS011;41913;51.030;3.706;2023-11-19T12:32:37;18.80;;;3.42;;
56045;SDS011;41913;51.030;3.706;2023-11-19T12:35:04;13.57;;;3.67;;
56045;SDS011;41913;51.030;3.706;2023-11-19T12:37:30;14.88;;;3.70;;
56045;SDS011;41913;51.030;3.706;2023-11-19T12:39:57;10.80;;;3.80;;
56045;SDS011;41913;51.030;3.706;2023-11-19T12:42:38;13.15;;;3.50;;
56045;SDS011;41913;51.030;3.706;2023-11-19T12:45:05;13.75;;;4.10;;
56045;SDS011;41913;51.030;3.706;2023-11-19T12:47:31;16.27;;;3.75;;
56045;SDS011;41913;51.030;3.706;2023-11-19T12:49:57;13.10;;;4.00;;
56045;SDS011;41913;51.030;3.706;2023-11-19T12:52:22;12.60;;;3.47;;
56045;SDS011;41913;51.030;3.706;2023-11-19T12:54:48;21.50;;;3.85;;
56045;SDS011;41913;51.030;3.706;2023-11-19T12:57:15;7.43;;;2.92;;
56045;SDS011;41913;51.030;3.706;2023-11-19T12:59:41;9.80;;;3.35;;
56045;SDS011;41913;51.030;3.706;2023-11-19T13:02:13;8.38;;;3.55;;
56045;SDS011;41913;51.030;3.706;2023-11-19T13:04:39;19.80;;;4.23;;
56045;SDS011;41913;51.030;3.706;2023-11-19T13:07:06;10.68;;;3.50;;
56045;SDS011;41913;51.030;3.706;2023-11-19T13:09:32;15.25;;;4.18;;
56045;SDS011;41913;51.030;3.706;2023-11-19T13:11:58;10.68;;;3.13;;
56045;SDS011;41913;51.030;3.706;2023-11-19T13:14:35;18.33;;;3.50;;
56045;SDS011;41913;51.030;3.706;2023-11-19T13:17:03;11.55;;;3.63;;
56045;SDS011;41913;51.030;3.706;2023-11-19T13:19:30;9.98;;;3.42;;
56045;SDS011;41913;51.030;3.706;2023-11-19T13:21:56;8.95;;;3.45;;
56045;SDS011;41913;51.030;3.706;2023-11-19T13:24:22;14.73;;;4.22;;
56045;SDS011;41913;51.030;3.706;2023-11-19T13:26:47;13.73;;;3.25;;
56045;SDS011;41913;51.030;3.706;2023-11-19T13:29:13;12.10;;;3.30;;
56045;SDS011;41913;51.030;3.706;2023-11-19T13:31:39;12.70;;;3.55;;
56045;SDS011;41913;51.030;3.706;2023-11-19T13:34:05;11.38;;;3.67;;
56045;SDS011;41913;51.030;3.706;2023-11-19T13:36:33;17.63;;;4.22;;
56045;SDS011;41913;51.030;3.706;2023-11-19T13:38:59;10.25;;;3.67;;
56045;SDS011;41913;51.030;3.706;2023-11-19T13:41:26;14.63;;;3.65;;
56045;SDS011;41913;51.030;3.706;2023-11-19T13:43:52;16.15;;;4.50;;
56045;SDS011;41913;51.030;3.706;2023-11-19T13:46:19;17.15;;;3.67;;
56045;SDS011;41913;51.030;3.706;2023-11-19T13:48:47;14.63;;;4.22;;
56045;SDS011;41913;51.030;3.706;2023-11-19T13:51:14;14.07;;;3.25;;
56045;SDS011;41913;51.030;3.706;2023-11-19T13:53:40;14.88;;;3.88;;
56045;SDS011;41913;51.030;3.706;2023-11-19T13:56:07;9.95;;;3.38;;
56045;SDS011;41913;51.030;3.706;2023-11-19T13:58:33;11.10;;;4.35;;
56045;SDS011;41913;51.030;3.706;2023-11-19T14:01:00;14.30;;;3.92;;
56045;SDS011;41913;51.030;3.706;2023-11-19T14:03:26;13.35;;;2.88;;
56045;SDS011;41913;51.030;3.706;2023-11-19T14:05:52;20.10;;;4.10;;
56045;SDS011;41913;51.030;3.706;2023-11-19T14:08:20;14.30;;;4.35;;
56045;SDS011;41913;51.030;3.706;2023-11-19T14:10:46;21.48;;;3.95;;
56045;SDS011;41913;51.030;3.706;2023-11-19T14:13:11;14.00;;;3.28;;
56045;SDS011;41913;51.030;3.706;2023-11-19T14:15:38;17.77;;;4.63;;
56045;SDS011;41913;51.030;3.706;2023-11-19T14:18:04;13.48;;;3.72;;
56045;SDS011;41913;51.030;3.706;2023-11-19T14:20:31;11.95;;;3.95;;
56045;SDS011;41913;51.030;3.706;2023-11-19T14:22:58;12.73;;;3.45;;
56045;SDS011;41913;51.030;3.706;2023-11-19T14:25:24;12.13;;;4.28;;
56045;SDS011;41913;51.030;3.706;2023-11-19T14:27:50;13.63;;;3.83;;
56045;SDS011;41913;51.030;3.706;2023-11-19T14:30:15;10.10;;;3.92;;
56045;SDS011;41913;51.030;3.706;2023-11-19T14:32:42;13.48;;;3.53;;
56045;SDS011;41913;51.030;3.706;2023-11-19T14:35:12;12.88;;;3.35;;
56045;SDS011;41913;51.030;3.706;2023-11-19T14:37:38;12.90;;;3.83;;
56045;SDS011;41913;51.030;3.706;2023-11-19T14:40:04;14.10;;;3.97;;
56045;SDS011;41913;51.030;3.706;2023-11-19T14:42:32;11.95;;;4.05;;
56045;SDS011;41913;51.030;3.706;2023-11-19T14:47:27;10.55;;;3.22;;
56045;SDS011;41913;51.030;3.706;2023-11-19T14:49:54;13.40;;;3.72;;
56045;SDS011;41913;51.030;3.706;2023-11-19T14:52:21;17.83;;;3.88;;
56045;SDS011;41913;51.030;3.706;2023-11-19T14:54:46;12.63;;;3.15;;
56045;SDS011;41913;51.030;3.706;2023-11-19T14:57:15;10.70;;;3.55;;
56045;SDS011;41913;51.030;3.706;2023-11-19T14:59:41;11.35;;;3.47;;
56045;SDS011;41913;51.030;3.706;2023-11-19T15:02:07;12.65;;;3.58;;
56045;SDS011;41913;51.030;3.706;2023-11-19T15:04:35;10.23;;;2.90;;
56045;SDS011;41913;51.030;3.706;2023-11-19T15:07:00;8.35;;;2.72;;
56045;SDS011;41913;51.030;3.706;2023-11-19T15:09:27;8.63;;;2.95;;